Time;durP1;ratioP1;P1;durP2;ratioP2;P2;SDS_P1;SDS_P2;PMS_P1;PMS_P2;Temp;Humidity;BMP_temperature;BMP_pressure;BME280_temperature;BME280_humidity;BME280_pressure;Samples;Min_cycle;Max_cycle;Signal;HPM_P1;HPM_P2
2022/05/30 00:01:46;;;;;;;8.60;1.67;;;;;;;;;;6302909;22;20023;-91
2022/05/30 00:04:13;;;;;;;4.28;1.08;;;;;;;;;;6312639;22;20015;-91
2022/05/30 00:06:41;;;;;;;3.88;1.33;;;;;;;;;;6338062;22;20049;-91
2022/05/30 00:09:13;;;;;;;6.53;1.20;;;;;;;;;;6275401;22;20473;-91
2022/05/30 00:12:06;;;;;;;4.60;1.20;;;;;;;;;;6312748;22;20019;-90
2022/05/30 00:14:39;;;;;;;8.02;1.73;;;;;;;;;;6275797;22;20030;-91
2022/05/30 00:17:07;;;;;;;4.78;1.50;;;;;;;;;;6312123;22;20011;-91
2022/05/30 00:20:01;;;;;;;6.75;1.40;;;;;;;;;;6301221;22;20050;-91
2022/05/30 00:22:58;;;;;;;3.53;1.33;;;;;;;;;;6315295;22;20022;-92
2022/05/30 00:25:25;;;;;;;12.52;1.70;;;;;;;;;;6289345;22;20019;-92
2022/05/30 00:27:53;;;;;;;6.20;1.90;;;;;;;;;;6315396;22;20015;-92
2022/05/30 00:30:26;;;;;;;7.35;1.60;;;;;;;;;;6280022;22;20027;-93
2022/05/30 00:32:53;;;;;;;7.43;1.63;;;;;;;;;;6290133;22;20011;-89
2022/05/30 00:35:21;;;;;;;6.65;1.30;;;;;;;;;;6314613;22;20437;-89
2022/05/30 00:38:13;;;;;;;6.47;1.60;;;;;;;;;;6283746;22;20072;-89
2022/05/30 00:40:42;;;;;;;5.00;1.60;;;;;;;;;;6278872;22;20029;-89
2022/05/30 00:43:25;;;;;;;7.45;1.95;;;;;;;;;;6303948;22;20023;-92
2022/05/30 00:46:01;;;;;;;8.38;1.88;;;;;;;;;;6315760;22;20023;-92
2022/05/30 00:48:36;;;;;;;7.85;1.63;;;;;;;;;;6277843;22;20493;-92
2022/05/30 00:51:26;;;;;;;5.38;1.60;;;;;;;;;;6314479;22;20019;-90
2022/05/30 00:54:21;;;;;;;7.70;1.50;;;;;;;;;;6315290;22;20082;-92
2022/05/30 00:56:57;;;;;;;4.80;1.10;;;;;;;;;;6280032;22;20054;-94
2022/05/30 00:59:25;;;;;;;4.97;1.95;;;;;;;;;;6254979;22;20019;-93
2022/05/30 01:02:21;;;;;;;4.97;1.40;;;;;;;;;;6305525;22;20027;-90
2022/05/30 01:08:02;;;;;;;6.78;1.63;;;;;;;;;;6318205;22;20015;-90
2022/05/30 01:10:30;;;;;;;8.68;1.25;;;;;;;;;;6280003;22;20050;-89
2022/05/30 01:13:10;;;;;;;8.20;1.58;;;;;;;;;;6278916;22;20031;-89
2022/05/30 01:15:37;;;;;;;5.18;1.20;;;;;;;;;;6278106;22;20733;-90
2022/05/30 01:19:00;;;;;;;6.88;1.33;;;;;;;;;;6315056;22;20403;-90
2022/05/30 01:22:15;;;;;;;7.20;1.42;;;;;;;;;;6335411;22;20019;-90
2022/05/30 01:24:58;;;;;;;5.65;1.40;;;;;;;;;;6313876;22;20060;-90
2022/05/30 01:28:05;;;;;;;7.30;1.60;;;;;;;;;;6303301;22;20019;-90
2022/05/30 01:30:43;;;;;;;5.00;1.10;;;;;;;;;;6278257;22;20027;-90
2022/05/30 01:33:39;;;;;;;11.88;2.22;;;;;;;;;;6313623;22;20018;-90
2022/05/30 01:36:13;;;;;;;7.03;1.48;;;;;;;;;;6314376;22;20023;-89
2022/05/30 01:38:41;;;;;;;6.95;1.27;;;;;;;;;;6313772;22;20094;-88
2022/05/30 01:41:17;;;;;;;7.22;1.50;;;;;;;;;;6316254;22;20102;-94
2022/05/30 01:43:45;;;;;;;3.47;1.35;;;;;;;;;;6280767;22;20034;-94
2022/05/30 01:46:21;;;;;;;7.05;1.33;;;;;;;;;;6281103;22;20051;-94
2022/05/30 01:48:53;;;;;;;6.32;1.50;;;;;;;;;;6281686;22;20020;-95
2022/05/30 01:51:22;;;;;;;6.22;1.30;;;;;;;;;;6281040;22;20064;-91
2022/05/30 01:53:59;;;;;;;7.70;1.38;;;;;;;;;;6293042;22;20023;-91
2022/05/30 01:56:31;;;;;;;7.97;1.63;;;;;;;;;;6317019;22;20011;-91
2022/05/30 01:59:01;;;;;;;6.65;1.40;;;;;;;;;;6317170;22;20022;-91
2022/05/30 02:01:51;;;;;;;6.43;1.40;;;;;;;;;;6308308;22;20023;-95
2022/05/30 02:04:23;;;;;;;4.07;1.30;;;;;;;;;;6317517;22;20015;-95
2022/05/30 02:06:51;;;;;;;8.13;1.40;;;;;;;;;;6317580;22;20019;-95
2022/05/30 02:09:19;;;;;;;4.05;1.80;;;;;;;;;;6281068;22;20019;-95
2022/05/30 02:11:51;;;;;;;3.92;1.50;;;;;;;;;;6291769;22;20019;-89
2022/05/30 02:14:44;;;;;;;7.95;1.45;;;;;;;;;;6315133;22;20015;-89
2022/05/30 02:17:14;;;;;;;5.80;1.73;;;;;;;;;;6278118;22;20072;-88
2022/05/30 02:19:44;;;;;;;6.75;1.45;;;;;;;;;;6313841;22;20019;-88
2022/05/30 02:22:18;;;;;;;9.13;1.50;;;;;;;;;;6341478;22;20019;-95
2022/05/30 02:25:12;;;;;;;8.98;1.20;;;;;;;;;;6338320;22;20026;-96
2022/05/30 02:27:41;;;;;;;7.18;1.55;;;;;;;;;;6282394;22;20020;-95
2022/05/30 02:30:10;;;;;;;4.30;1.50;;;;;;;;;;6282004;22;20027;-95
2022/05/30 02:32:37;;;;;;;11.15;1.27;;;;;;;;;;6304919;22;20038;-93
2022/05/30 02:37:57;;;;;;;3.97;1.30;;;;;;;;;;6276287;22;20035;-93
2022/05/30 02:40:49;;;;;;;4.80;1.38;;;;;;;;;;6281311;22;20480;-92
2022/05/30 02:43:47;;;;;;;6.68;1.73;;;;;;;;;;6276860;22;20026;-90
2022/05/30 02:46:15;;;;;;;6.97;1.70;;;;;;;;;;6287412;22;20094;-90
2022/05/30 02:48:43;;;;;;;7.15;1.25;;;;;;;;;;6276778;22;20019;-90
2022/05/30 02:51:18;;;;;;;6.22;1.60;;;;;;;;;;6313221;22;20022;-88
2022/05/30 02:53:52;;;;;;;5.07;1.60;;;;;;;;;;6312208;22;20015;-88
2022/05/30 02:57:13;;;;;;;4.25;1.60;;;;;;;;;;6283268;22;20011;-95
2022/05/30 02:59:41;;;;;;;9.13;2.08;;;;;;;;;;6282553;22;20068;-95
2022/05/30 03:02:09;;;;;;;5.85;1.55;;;;;;;;;;6292394;22;20022;-89
2022/05/30 03:04:43;;;;;;;5.28;1.63;;;;;;;;;;6322066;22;20053;-89
2022/05/30 03:07:35;;;;;;;5.63;1.58;;;;;;;;;;6347937;22;20021;-90
2022/05/30 03:10:11;;;;;;;8.05;1.38;;;;;;;;;;6346263;22;20014;-90
2022/05/30 03:12:49;;;;;;;4.38;1.65;;;;;;;;;;6345983;22;20014;-89
2022/05/30 03:15:17;;;;;;;5.70;1.58;;;;;;;;;;6345446;22;20040;-89
2022/05/30 03:17:45;;;;;;;8.40;1.88;;;;;;;;;;6345963;22;20018;-90
2022/05/30 03:20:13;;;;;;;10.63;2.33;;;;;;;;;;6346712;22;20011;-90
2022/05/30 03:22:47;;;;;;;10.20;1.60;;;;;;;;;;6346049;22;20038;-89
2022/05/30 03:25:16;;;;;;;4.13;1.30;;;;;;;;;;6348098;22;20071;-87
2022/05/30 03:27:54;;;;;;;10.75;1.77;;;;;;;;;;6347283;22;20015;-89
2022/05/30 03:30:22;;;;;;;4.65;1.25;;;;;;;;;;6346261;22;20042;-89
2022/05/30 03:32:51;;;;;;;6.80;1.70;;;;;;;;;;6347804;22;20615;-90
2022/05/30 03:35:24;;;;;;;2.67;1.20;;;;;;;;;;6347834;22;20018;-90
2022/05/30 03:38:02;;;;;;;2.90;1.20;;;;;;;;;;6347007;22;20015;-90
2022/05/30 03:40:55;;;;;;;6.40;1.48;;;;;;;;;;6348149;22;20022;-89
2022/05/30 03:44:07;;;;;;;6.38;1.77;;;;;;;;;;6252871;23;20024;-89
2022/05/30 03:46:35;;;;;;;8.68;2.03;;;;;;;;;;6251986;23;20016;-90
2022/05/30 03:49:03;;;;;;;8.13;1.90;;;;;;;;;;6226809;23;20369;-90
2022/05/30 03:51:37;;;;;;;9.40;1.40;;;;;;;;;;6252080;23;20585;-89
2022/05/30 03:54:05;;;;;;;6.05;1.50;;;;;;;;;;6226632;23;20020;-90
2022/05/30 03:56:33;;;;;;;6.40;1.95;;;;;;;;;;6251840;23;20020;-89
2022/05/30 03:59:02;;;;;;;6.13;1.88;;;;;;;;;;6227661;23;20186;-90
2022/05/30 04:01:31;;;;;;;6.00;2.10;;;;;;;;;;6226893;23;20028;-82
2022/05/30 04:03:59;;;;;;;6.93;1.80;;;;;;;;;;6251607;23;20726;-82
2022/05/30 04:06:27;;;;;;;9.27;1.60;;;;;;;;;;6255371;23;20028;-88
2022/05/30 04:08:57;;;;;;;5.45;1.30;;;;;;;;;;6251719;23;20697;-89
2022/05/30 04:11:49;;;;;;;4.80;1.60;;;;;;;;;;6233213;23;20024;-88
2022/05/30 04:14:35;;;;;;;7.05;1.60;;;;;;;;;;6286732;22;20022;-88
2022/05/30 04:17:11;;;;;;;8.93;1.42;;;;;;;;;;6349522;22;20026;-90
2022/05/30 04:20:05;;;;;;;7.20;2.08;;;;;;;;;;6351448;22;20435;-91
2022/05/30 04:22:33;;;;;;;6.68;1.48;;;;;;;;;;6349973;22;20018;-90
2022/05/30 04:25:11;;;;;;;9.20;1.52;;;;;;;;;;6312917;22;20036;-90
2022/05/30 04:27:41;;;;;;;3.22;1.50;;;;;;;;;;6350317;22;20030;-90
2022/05/30 04:30:10;;;;;;;5.25;1.40;;;;;;;;;;6350451;22;20018;-91
2022/05/30 04:32:53;;;;;;;5.82;2.03;;;;;;;;;;6314464;22;20019;-90
2022/05/30 04:35:25;;;;;;;5.57;1.70;;;;;;;;;;6313395;22;20049;-89
2022/05/30 04:37:53;;;;;;;6.28;1.50;;;;;;;;;;6350212;22;20369;-89
2022/05/30 04:40:35;;;;;;;5.82;1.83;;;;;;;;;;6349408;22;20077;-89
2022/05/30 04:43:25;;;;;;;5.22;1.60;;;;;;;;;;6340933;22;20125;-85
2022/05/30 04:46:25;;;;;;;9.63;1.67;;;;;;;;;;6333090;22;20553;-87
2022/05/30 04:49:19;;;;;;;5.68;1.35;;;;;;;;;;6341879;22;20014;-86
2022/05/30 04:51:48;;;;;;;7.38;1.85;;;;;;;;;;6340246;22;20098;-77
2022/05/30 04:54:41;;;;;;;8.90;1.90;;;;;;;;;;6341101;22;20029;-76
2022/05/30 04:57:27;;;;;;;7.75;1.65;;;;;;;;;;6341740;22;20019;-84
2022/05/30 05:00:19;;;;;;;6.00;1.67;;;;;;;;;;6341189;22;20018;-84
2022/05/30 05:02:47;;;;;;;7.82;1.63;;;;;;;;;;6341475;22;20033;-84
2022/05/30 05:05:19;;;;;;;8.45;1.83;;;;;;;;;;6340440;22;20484;-84
2022/05/30 05:08:00;;;;;;;6.28;2.00;;;;;;;;;;6340785;22;20026;-85
2022/05/30 05:11:03;;;;;;;5.60;1.60;;;;;;;;;;6338679;22;20138;-84
2022/05/30 05:13:50;;;;;;;4.75;1.40;;;;;;;;;;6341860;22;20157;-77
2022/05/30 05:16:37;;;;;;;6.60;1.40;;;;;;;;;;6339615;22;20350;-76
2022/05/30 05:19:05;;;;;;;5.43;1.40;;;;;;;;;;6327626;22;20036;-76
2022/05/30 05:21:36;;;;;;;9.93;1.88;;;;;;;;;;6339949;22;20061;-76
2022/05/30 05:24:05;;;;;;;5.88;1.40;;;;;;;;;;6337664;22;20076;-76
2022/05/30 05:26:57;;;;;;;5.53;1.30;;;;;;;;;;6339294;22;20101;-76
2022/05/30 05:29:52;;;;;;;8.10;2.28;;;;;;;;;;6339896;22;20033;-76
2022/05/30 05:32:21;;;;;;;5.70;1.60;;;;;;;;;;6326741;22;20052;-76
2022/05/30 05:34:50;;;;;;;6.47;1.73;;;;;;;;;;6337082;22;20454;-77
2022/05/30 05:37:19;;;;;;;4.65;1.90;;;;;;;;;;6312726;22;20040;-79
2022/05/30 05:39:51;;;;;;;5.32;1.35;;;;;;;;;;6327764;22;20055;-77
2022/05/30 05:42:19;;;;;;;10.38;2.00;;;;;;;;;;6337147;22;20018;-76
2022/05/30 05:44:49;;;;;;;6.43;2.08;;;;;;;;;;6337539;22;20069;-77
2022/05/30 05:47:21;;;;;;;4.65;1.95;;;;;;;;;;6338957;22;20014;-76
2022/05/30 05:49:53;;;;;;;9.75;2.97;;;;;;;;;;6337811;22;20391;-76
2022/05/30 05:52:28;;;;;;;4.82;1.85;;;;;;;;;;6338415;22;20022;-77
2022/05/30 05:54:59;;;;;;;11.10;1.80;;;;;;;;;;6337757;22;20029;-76
2022/05/30 05:57:51;;;;;;;5.65;1.77;;;;;;;;;;6339615;22;20402;-76
2022/05/30 06:00:19;;;;;;;10.45;2.35;;;;;;;;;;6337205;22;20034;-79
2022/05/30 06:03:11;;;;;;;6.68;2.17;;;;;;;;;;6338806;22;20456;-76
2022/05/30 06:05:59;;;;;;;8.45;1.73;;;;;;;;;;6338782;22;20030;-76
2022/05/30 06:08:50;;;;;;;7.22;1.48;;;;;;;;;;6316621;22;20026;-76
2022/05/30 06:11:24;;;;;;;4.97;1.23;;;;;;;;;;6337163;22;20056;-75
2022/05/30 06:13:57;;;;;;;7.95;1.30;;;;;;;;;;6337155;22;20018;-75
2022/05/30 06:16:51;;;;;;;6.20;1.40;;;;;;;;;;6282017;22;20100;-75
2022/05/30 06:19:53;;;;;;;9.20;1.65;;;;;;;;;;6337474;22;20033;-74
2022/05/30 06:22:45;;;;;;;4.50;1.52;;;;;;;;;;6339524;22;20018;-75
2022/05/30 06:25:31;;;;;;;6.90;1.77;;;;;;;;;;6336380;22;20093;-75
2022/05/30 06:28:23;;;;;;;6.35;1.45;;;;;;;;;;6338821;22;20018;-74
2022/05/30 06:31:10;;;;;;;4.80;1.50;;;;;;;;;;6332233;22;20185;-75
2022/05/30 06:33:38;;;;;;;6.85;1.75;;;;;;;;;;6330282;22;20038;-75
2022/05/30 06:36:11;;;;;;;9.15;2.10;;;;;;;;;;6333755;22;20516;-75
2022/05/30 06:38:40;;;;;;;6.65;1.80;;;;;;;;;;6335718;22;20014;-75
2022/05/30 06:41:17;;;;;;;6.85;1.90;;;;;;;;;;6336235;22;20275;-75
2022/05/30 06:44:06;;;;;;;4.93;1.70;;;;;;;;;;6334394;22;20098;-75
2022/05/30 06:46:53;;;;;;;7.82;2.00;;;;;;;;;;6322441;22;20466;-75
2022/05/30 06:49:50;;;;;;;6.10;1.60;;;;;;;;;;6178472;23;20020;-75
2022/05/30 06:52:43;;;;;;;8.52;2.15;;;;;;;;;;6180027;23;20036;-73
2022/05/30 06:55:11;;;;;;;7.25;1.70;;;;;;;;;;6169802;23;20029;-75
2022/05/30 07:00:35;;;;;;;5.63;1.67;;;;;;;;;;6169864;23;20501;-75
2022/05/30 07:03:21;;;;;;;6.90;1.80;;;;;;;;;;6178243;23;20075;-75
2022/05/30 07:06:28;;;;;;;7.32;1.65;;;;;;;;;;6150420;23;20036;-75
2022/05/30 07:09:15;;;;;;;7.30;1.90;;;;;;;;;;6126101;23;20026;-75
2022/05/30 07:11:57;;;;;;;7.35;1.65;;;;;;;;;;6140131;23;20030;-75
2022/05/30 07:14:27;;;;;;;5.25;1.55;;;;;;;;;;6150116;23;20040;-75
2022/05/30 07:16:55;;;;;;;6.90;2.20;;;;;;;;;;6150382;23;20026;-75
2022/05/30 07:19:30;;;;;;;6.85;1.52;;;;;;;;;;6124969;23;20025;-75
2022/05/30 07:22:29;;;;;;;5.57;1.67;;;;;;;;;;6150304;23;20032;-75
2022/05/30 07:25:15;;;;;;;4.22;1.60;;;;;;;;;;6145651;22;20025;-75
2022/05/30 07:28:12;;;;;;;8.02;1.88;;;;;;;;;;6240894;23;20191;-75
2022/05/30 07:34:19;;;;;;;5.28;1.77;;;;;;;;;;6241759;23;20111;-75
2022/05/30 07:37:05;;;;;;;7.20;2.00;;;;;;;;;;6219911;23;20553;-75
2022/05/30 07:39:49;;;;;;;6.32;1.88;;;;;;;;;;6213130;23;20031;-75
2022/05/30 07:42:43;;;;;;;6.78;1.70;;;;;;;;;;6215292;23;20031;-75
2022/05/30 07:45:21;;;;;;;8.50;1.95;;;;;;;;;;6216388;23;20024;-75
2022/05/30 07:48:07;;;;;;;6.00;1.92;;;;;;;;;;6240807;23;20034;-75
2022/05/30 07:51:17;;;;;;;4.15;1.67;;;;;;;;;;6241425;23;20372;-75
2022/05/30 07:54:15;;;;;;;6.45;1.58;;;;;;;;;;6214657;23;20058;-75
2022/05/30 07:57:05;;;;;;;6.28;1.90;;;;;;;;;;6241782;23;20028;-75
2022/05/30 07:59:39;;;;;;;6.20;1.55;;;;;;;;;;6180403;23;20071;-75
2022/05/30 08:02:38;;;;;;;5.45;1.70;;;;;;;;;;6234433;23;20071;-75
2022/05/30 08:05:14;;;;;;;4.95;2.03;;;;;;;;;;6244302;22;20344;-75
2022/05/30 08:08:06;;;;;;;7.07;1.45;;;;;;;;;;6309238;22;20060;-75
2022/05/30 08:10:59;;;;;;;5.68;1.80;;;;;;;;;;6336263;22;20721;-75
2022/05/30 08:13:29;;;;;;;6.07;1.42;;;;;;;;;;6336660;22;20106;-75
2022/05/30 08:16:03;;;;;;;6.90;2.25;;;;;;;;;;6335476;22;20019;-75
2022/05/30 08:18:34;;;;;;;5.95;1.50;;;;;;;;;;6335601;22;20023;-75
2022/05/30 08:21:06;;;;;;;6.25;1.50;;;;;;;;;;6337309;22;20015;-75
2022/05/30 08:23:42;;;;;;;5.63;1.85;;;;;;;;;;6334792;22;20127;-75
2022/05/30 08:26:14;;;;;;;5.45;1.95;;;;;;;;;;6334839;22;20047;-75
2022/05/30 08:29:11;;;;;;;3.83;1.40;;;;;;;;;;6316518;22;20454;-75
2022/05/30 08:31:46;;;;;;;4.45;1.30;;;;;;;;;;6334085;22;20073;-75
2022/05/30 08:34:37;;;;;;;6.07;1.50;;;;;;;;;;6337706;22;20108;-75
2022/05/30 08:37:06;;;;;;;4.38;1.67;;;;;;;;;;6335635;22;20019;-74
2022/05/30 08:42:33;;;;;;;5.97;2.20;;;;;;;;;;6333912;22;20519;-75
2022/05/30 08:45:18;;;;;;;4.55;1.83;;;;;;;;;;6337035;22;20506;-75
2022/05/30 08:49:21;;;;;;;5.50;1.88;;;;;;;;;;6336881;22;20601;-77
2022/05/30 08:51:52;;;;;;;6.18;1.80;;;;;;;;;;6217008;23;20035;-76
2022/05/30 08:54:56;;;;;;;3.10;1.45;;;;;;;;;;6215810;23;20032;-75
2022/05/30 08:57:56;;;;;;;5.88;2.08;;;;;;;;;;6242530;23;20024;-75
2022/05/30 09:00:36;;;;;;;4.72;1.98;;;;;;;;;;6217831;23;20212;-76
2022/05/30 09:04:04;;;;;;;5.18;1.90;;;;;;;;;;6241986;23;20123;-75
2022/05/30 09:06:38;;;;;;;4.03;1.67;;;;;;;;;;6217436;23;20024;-75
2022/05/30 09:09:17;;;;;;;4.97;2.50;;;;;;;;;;6206550;23;20027;-75
2022/05/30 09:12:03;;;;;;;5.38;1.80;;;;;;;;;;6242367;23;20464;-75
2022/05/30 09:15:02;;;;;;;7.40;2.20;;;;;;;;;;6243576;23;20650;-75
2022/05/30 09:17:41;;;;;;;6.85;2.40;;;;;;;;;;6217570;23;20738;-75
2022/05/30 09:20:14;;;;;;;9.10;2.55;;;;;;;;;;6207556;23;20785;-75
2022/05/30 09:22:42;;;;;;;8.30;2.25;;;;;;;;;;6232714;23;20056;-75
2022/05/30 09:28:42;;;;;;;5.57;1.90;;;;;;;;;;6326850;22;20027;-75
2022/05/30 09:31:36;;;;;;;4.80;2.00;;;;;;;;;;6338799;22;20026;-75
2022/05/30 09:34:49;;;;;;;5.60;1.90;;;;;;;;;;6338997;22;20034;-75
2022/05/30 09:37:38;;;;;;;4.70;1.90;;;;;;;;;;6339171;22;20014;-75
2022/05/30 09:41:03;;;;;;;4.45;1.63;;;;;;;;;;6333878;22;20042;-75
2022/05/30 09:43:56;;;;;;;5.32;1.67;;;;;;;;;;6309324;22;20030;-75
2022/05/30 09:46:37;;;;;;;6.85;2.05;;;;;;;;;;6335075;22;20029;-76
2022/05/30 09:49:16;;;;;;;5.88;2.22;;;;;;;;;;6334813;22;20038;-76
2022/05/30 09:51:50;;;;;;;5.55;1.58;;;;;;;;;;6335240;22;20043;-75
2022/05/30 09:54:43;;;;;;;4.57;1.83;;;;;;;;;;6332938;22;20057;-75
2022/05/30 09:57:25;;;;;;;3.90;1.92;;;;;;;;;;6334683;22;20076;-75
2022/05/30 10:00:34;;;;;;;7.28;2.00;;;;;;;;;;6335202;22;20253;-76
2022/05/30 10:03:07;;;;;;;4.00;2.00;;;;;;;;;;6243882;22;20414;-75
2022/05/30 10:05:37;;;;;;;6.07;1.90;;;;;;;;;;6266390;22;20699;-76
2022/05/30 10:08:31;;;;;;;3.13;1.83;;;;;;;;;;6303817;22;20137;-75
2022/05/30 10:13:57;;;;;;;7.53;2.20;;;;;;;;;;6275677;22;20027;-75
2022/05/30 10:16:57;;;;;;;5.22;2.10;;;;;;;;;;6301294;22;20430;-75
2022/05/30 10:19:48;;;;;;;3.90;1.90;;;;;;;;;;6282612;22;20015;-76
2022/05/30 10:29:49;;;;;;;6.68;2.20;;;;;;;;;;6302900;22;20019;-76
2022/05/30 10:33:16;;;;;;;4.95;2.10;;;;;;;;;;6296728;22;20069;-76
2022/05/30 10:35:54;;;;;;;6.32;2.33;;;;;;;;;;6279453;22;20023;-75
2022/05/30 10:38:34;;;;;;;6.90;2.40;;;;;;;;;;6267425;22;20027;-76
2022/05/30 10:41:10;;;;;;;4.88;2.30;;;;;;;;;;6327030;22;20072;-76
2022/05/30 10:44:02;;;;;;;5.65;2.15;;;;;;;;;;6336505;22;20339;-76
2022/05/30 10:47:01;;;;;;;3.83;2.08;;;;;;;;;;6335752;22;20029;-75
2022/05/30 10:49:41;;;;;;;4.45;2.28;;;;;;;;;;6335988;22;20038;-75
2022/05/30 10:52:15;;;;;;;4.88;2.33;;;;;;;;;;6337749;22;20023;-76
2022/05/30 10:55:20;;;;;;;3.40;2.20;;;;;;;;;;6335643;22;20018;-75
2022/05/30 10:57:58;;;;;;;5.28;2.22;;;;;;;;;;6324751;22;20097;-75
2022/05/30 11:00:40;;;;;;;9.02;1.95;;;;;;;;;;6335042;22;20018;-75
2022/05/30 11:03:41;;;;;;;5.68;1.83;;;;;;;;;;6335419;22;20026;-76
2022/05/30 11:06:26;;;;;;;6.55;1.88;;;;;;;;;;6337076;22;20029;-75
2022/05/30 11:09:34;;;;;;;5.93;1.85;;;;;;;;;;6310422;22;20014;-76
2022/05/30 11:12:27;;;;;;;5.07;2.00;;;;;;;;;;6337141;22;20106;-76
2022/05/30 11:15:23;;;;;;;7.43;2.00;;;;;;;;;;6334740;22;20115;-76
2022/05/30 11:18:42;;;;;;;5.40;2.00;;;;;;;;;;6336364;22;20307;-75
2022/05/30 11:24:51;;;;;;;10.90;2.40;;;;;;;;;;6334432;22;20046;-75
2022/05/30 11:27:35;;;;;;;5.35;1.92;;;;;;;;;;6334725;22;20129;-76
2022/05/30 11:31:00;;;;;;;6.35;1.90;;;;;;;;;;6335460;22;20022;-76
2022/05/30 11:33:54;;;;;;;5.15;1.90;;;;;;;;;;6240867;23;20411;-75
2022/05/30 11:36:45;;;;;;;4.10;1.58;;;;;;;;;;6240718;23;20028;-75
2022/05/30 11:40:10;;;;;;;3.63;1.80;;;;;;;;;;6239381;23;20050;-75
2022/05/30 11:43:05;;;;;;;3.60;1.77;;;;;;;;;;6230427;23;20051;-75
2022/05/30 11:45:55;;;;;;;5.75;1.70;;;;;;;;;;6230406;23;20478;-77
2022/05/30 11:48:32;;;;;;;3.50;1.80;;;;;;;;;;6240360;23;20419;-76
2022/05/30 11:51:11;;;;;;;2.83;1.73;;;;;;;;;;6239815;23;20050;-75
2022/05/30 11:54:03;;;;;;;3.97;2.55;;;;;;;;;;6239573;23;20028;-75
2022/05/30 11:56:37;;;;;;;5.85;1.70;;;;;;;;;;6241173;23;20090;-75
2022/05/30 12:00:04;;;;;;;7.22;1.83;;;;;;;;;;6240576;23;20043;-75
2022/05/30 12:02:56;;;;;;;5.63;1.95;;;;;;;;;;6229113;23;20032;-75
2022/05/30 12:05:47;;;;;;;3.42;1.67;;;;;;;;;;6240480;23;20082;-75
2022/05/30 12:08:41;;;;;;;5.88;1.88;;;;;;;;;;6252357;22;20032;-75
2022/05/30 12:11:39;;;;;;;5.43;1.80;;;;;;;;;;6336696;22;20018;-75
2022/05/30 12:14:45;;;;;;;4.88;1.30;;;;;;;;;;6325277;22;20335;-75
2022/05/30 12:17:35;;;;;;;3.40;1.50;;;;;;;;;;6336264;22;20022;-75
2022/05/30 12:25:57;;;;;;;6.85;2.05;;;;;;;;;;6338459;22;20068;-75
2022/05/30 12:28:28;;;;;;;3.80;1.80;;;;;;;;;;6339985;22;20018;-75
2022/05/30 12:31:01;;;;;;;4.57;1.50;;;;;;;;;;6337858;22;20019;-75
2022/05/30 12:33:34;;;;;;;3.33;1.67;;;;;;;;;;6337028;22;20075;-75
2022/05/30 12:36:10;;;;;;;4.10;1.63;;;;;;;;;;6301686;22;20527;-77
2022/05/30 12:39:29;;;;;;;3.53;1.80;;;;;;;;;;6338556;22;20022;-77
2022/05/30 12:41:59;;;;;;;4.60;1.73;;;;;;;;;;6336555;22;20025;-76
2022/05/30 12:44:47;;;;;;;2.90;1.70;;;;;;;;;;6337304;22;20101;-76
2022/05/30 12:47:25;;;;;;;3.33;1.58;;;;;;;;;;6325674;22;20019;-76
2022/05/30 12:50:14;;;;;;;7.35;2.10;;;;;;;;;;6338396;22;20019;-76
2022/05/30 12:52:59;;;;;;;4.03;1.80;;;;;;;;;;6338735;22;20489;-75
2022/05/30 12:55:46;;;;;;;7.97;2.22;;;;;;;;;;6337193;22;20023;-75
2022/05/30 12:58:20;;;;;;;4.22;1.85;;;;;;;;;;6339857;22;20037;-76
2022/05/30 13:00:55;;;;;;;5.97;2.17;;;;;;;;;;6339504;22;20064;-76
2022/05/30 13:03:33;;;;;;;3.92;1.80;;;;;;;;;;6328206;22;20019;-76
2022/05/30 13:06:14;;;;;;;4.03;1.83;;;;;;;;;;6338224;22;20018;-75
2022/05/30 13:09:09;;;;;;;3.00;1.80;;;;;;;;;;6338504;22;20137;-76
2022/05/30 13:12:05;;;;;;;5.68;1.85;;;;;;;;;;6324367;22;20014;-76
2022/05/30 13:14:36;;;;;;;3.90;1.90;;;;;;;;;;6336919;22;20177;-76
2022/05/30 13:17:17;;;;;;;3.40;1.88;;;;;;;;;;6338230;22;20029;-75
2022/05/30 13:19:50;;;;;;;5.57;2.22;;;;;;;;;;6339370;22;20080;-75
2022/05/30 13:22:54;;;;;;;3.78;1.80;;;;;;;;;;6339901;22;20580;-75
2022/05/30 13:25:38;;;;;;;3.50;2.00;;;;;;;;;;6337679;22;20026;-76
2022/05/30 13:28:18;;;;;;;3.88;1.73;;;;;;;;;;6339286;22;20022;-75
2022/05/30 13:30:46;;;;;;;4.15;1.77;;;;;;;;;;6338947;22;20446;-76
2022/05/30 13:33:25;;;;;;;6.20;2.53;;;;;;;;;;6338271;22;20107;-76
2022/05/30 13:35:58;;;;;;;4.30;2.00;;;;;;;;;;6339017;22;20117;-78
2022/05/30 13:38:41;;;;;;;3.63;2.03;;;;;;;;;;6338422;22;20011;-76
2022/05/30 13:41:16;;;;;;;4.18;2.03;;;;;;;;;;6337536;22;20018;-76
2022/05/30 13:43:45;;;;;;;5.00;1.92;;;;;;;;;;6336614;22;20273;-76
2022/05/30 13:46:39;;;;;;;5.18;2.50;;;;;;;;;;6337735;22;20018;-76
2022/05/30 13:49:07;;;;;;;4.18;1.65;;;;;;;;;;6337824;22;20029;-76
2022/05/30 13:51:38;;;;;;;3.95;2.22;;;;;;;;;;6338494;22;20044;-76
2022/05/30 13:54:10;;;;;;;4.75;2.13;;;;;;;;;;6337055;22;20083;-76
2022/05/30 13:56:43;;;;;;;3.58;1.80;;;;;;;;;;6337772;22;20072;-76
2022/05/30 13:59:24;;;;;;;5.45;2.00;;;;;;;;;;6338252;22;20619;-76
2022/05/30 14:02:02;;;;;;;5.47;2.20;;;;;;;;;;6335949;22;20018;-76
2022/05/30 14:04:41;;;;;;;3.70;1.80;;;;;;;;;;6337211;22;20019;-76
2022/05/30 14:07:21;;;;;;;5.75;2.35;;;;;;;;;;6338684;22;20025;-76
2022/05/30 14:09:57;;;;;;;3.53;1.77;;;;;;;;;;6337054;22;20023;-75
2022/05/30 14:12:35;;;;;;;5.18;2.10;;;;;;;;;;6335895;22;20022;-76
2022/05/30 14:15:21;;;;;;;4.45;2.10;;;;;;;;;;6337869;22;20017;-76
2022/05/30 14:17:54;;;;;;;3.25;1.85;;;;;;;;;;6337123;22;20661;-75
2022/05/30 14:20:32;;;;;;;4.20;2.03;;;;;;;;;;6337584;22;20011;-76
2022/05/30 14:23:07;;;;;;;4.85;2.70;;;;;;;;;;6337966;22;20015;-76
2022/05/30 14:25:46;;;;;;;3.10;1.90;;;;;;;;;;6335751;22;20050;-76
2022/05/30 14:28:31;;;;;;;7.32;2.30;;;;;;;;;;6338080;22;20019;-76
2022/05/30 14:31:09;;;;;;;11.25;3.08;;;;;;;;;;6338358;22;20014;-76
2022/05/30 14:33:37;;;;;;;3.83;1.90;;;;;;;;;;6338382;22;20041;-76
2022/05/30 14:36:21;;;;;;;3.05;1.70;;;;;;;;;;6338417;22;20021;-77
2022/05/30 14:38:49;;;;;;;4.32;1.90;;;;;;;;;;6327143;22;20046;-76
2022/05/30 14:41:24;;;;;;;4.93;2.00;;;;;;;;;;6325997;22;20018;-77
2022/05/30 14:46:49;;;;;;;3.47;1.60;;;;;;;;;;6337871;22;20113;-76
2022/05/30 14:49:20;;;;;;;4.10;1.65;;;;;;;;;;6338542;22;20046;-77
2022/05/30 14:51:54;;;;;;;3.95;1.67;;;;;;;;;;6338112;22;20749;-76
2022/05/30 14:54:48;;;;;;;3.08;1.83;;;;;;;;;;6337549;22;20042;-76
2022/05/30 14:57:28;;;;;;;4.35;1.98;;;;;;;;;;6337321;22;20026;-77
2022/05/30 15:00:22;;;;;;;3.00;1.80;;;;;;;;;;6327612;22;20096;-76
2022/05/30 15:05:41;;;;;;;4.45;1.85;;;;;;;;;;6337906;22;20022;-76
2022/05/30 15:08:09;;;;;;;6.13;1.60;;;;;;;;;;6339046;22;20025;-77
2022/05/30 15:10:41;;;;;;;4.03;1.77;;;;;;;;;;6334454;22;20019;-77
2022/05/30 15:13:35;;;;;;;5.45;1.85;;;;;;;;;;6339259;22;20026;-76
2022/05/30 15:16:03;;;;;;;4.60;1.63;;;;;;;;;;6338685;22;20022;-77
2022/05/30 15:18:57;;;;;;;6.03;1.70;;;;;;;;;;6339115;22;20030;-76
2022/05/30 15:21:35;;;;;;;3.55;1.90;;;;;;;;;;6338119;22;20098;-76
2022/05/30 15:24:30;;;;;;;3.72;1.92;;;;;;;;;;6337692;22;20022;-76
2022/05/30 15:26:58;;;;;;;4.07;1.85;;;;;;;;;;6337014;22;20056;-76
2022/05/30 15:29:28;;;;;;;3.72;1.70;;;;;;;;;;6338395;22;20022;-77
2022/05/30 15:32:06;;;;;;;6.28;2.17;;;;;;;;;;6336073;22;20308;-77
2022/05/30 15:34:33;;;;;;;4.43;1.70;;;;;;;;;;6326268;22;20030;-77
2022/05/30 15:37:09;;;;;;;4.22;1.58;;;;;;;;;;6336885;22;20068;-76
2022/05/30 15:39:38;;;;;;;3.97;2.25;;;;;;;;;;6337493;22;20389;-76
2022/05/30 15:42:07;;;;;;;4.90;1.90;;;;;;;;;;6338625;22;20090;-76
2022/05/30 15:44:40;;;;;;;5.97;1.85;;;;;;;;;;6338983;22;20025;-76
2022/05/30 15:47:11;;;;;;;3.75;1.70;;;;;;;;;;6339934;22;20377;-75
2022/05/30 15:49:45;;;;;;;5.95;2.00;;;;;;;;;;6336746;22;20447;-77
2022/05/30 15:52:25;;;;;;;5.25;2.10;;;;;;;;;;6325786;22;20040;-76
2022/05/30 15:57:52;;;;;;;4.43;1.70;;;;;;;;;;6338757;22;20022;-76
2022/05/30 16:00:22;;;;;;;5.90;1.73;;;;;;;;;;6337506;22;20014;-77
2022/05/30 16:02:49;;;;;;;5.13;1.70;;;;;;;;;;6339108;22;20076;-77
2022/05/30 16:05:17;;;;;;;3.00;1.40;;;;;;;;;;6336936;22;20522;-76
2022/05/30 16:07:49;;;;;;;2.72;1.40;;;;;;;;;;6338449;22;20024;-76
2022/05/30 16:10:23;;;;;;;4.25;1.30;;;;;;;;;;6324964;22;20034;-76
2022/05/30 16:12:53;;;;;;;5.65;2.25;;;;;;;;;;6339113;22;20022;-78
2022/05/30 16:15:21;;;;;;;7.20;1.70;;;;;;;;;;6338751;22;20027;-77
2022/05/30 16:17:49;;;;;;;3.80;1.83;;;;;;;;;;6338088;22;20072;-77
2022/05/30 16:20:17;;;;;;;2.92;1.63;;;;;;;;;;6337733;22;20545;-77
2022/05/30 16:26:07;;;;;;;2.67;1.33;;;;;;;;;;6336977;22;20080;-77
2022/05/30 16:28:35;;;;;;;2.65;1.23;;;;;;;;;;6338118;22;20029;-77
2022/05/30 16:31:32;;;;;;;4.03;1.83;;;;;;;;;;6336288;22;20438;-77
2022/05/30 16:34:05;;;;;;;2.97;1.45;;;;;;;;;;6337187;22;20022;-77
2022/05/30 16:36:39;;;;;;;4.05;1.73;;;;;;;;;;6338575;22;20041;-77
2022/05/30 16:39:11;;;;;;;2.42;1.10;;;;;;;;;;6336897;22;20030;-77
2022/05/30 16:41:39;;;;;;;4.72;1.40;;;;;;;;;;6338357;22;20020;-76
2022/05/30 16:44:20;;;;;;;1.90;1.20;;;;;;;;;;6337859;22;20064;-76
2022/05/30 16:47:00;;;;;;;2.00;1.15;;;;;;;;;;6276763;22;20058;-77
2022/05/30 16:50:01;;;;;;;3.65;1.52;;;;;;;;;;6336105;22;20019;-81
2022/05/30 16:52:37;;;;;;;5.72;1.08;;;;;;;;;;6334999;22;20319;-78
2022/05/30 16:55:09;;;;;;;4.85;1.45;;;;;;;;;;6337509;22;20068;-82
2022/05/30 16:58:11;;;;;;;3.72;1.38;;;;;;;;;;6319075;22;20076;-78